Time;durP1;ratioP1;P1;durP2;ratioP2;P2;SDS_P1;SDS_P2;PMS_P1;PMS_P2;Temp;Humidity;BMP_temperature;BMP_pressure;BME280_temperature;BME280_humidity;BME280_pressure;Samples;Min_cycle;Max_cycle;Signal;HPM_P1;HPM_P2
2023/11/06 00:00:14;;;;;;;3;1.3;;;;;;;5.5;93.71973;924.892;;;;
2023/11/06 00:02:39;;;;;;;2.2;1.3;;;;;;;5.4;94.6123;924.7394;;;;
2023/11/06 00:05:17;;;;;;;4.3;1.6;;;;;;;5.1;94.91602;924.7631;;;;
2023/11/06 00:07:56;;;;;;;2.7;1.7;;;;;;;4.97;96.46387;924.9699;;;;
2023/11/06 00:10:29;;;;;;;2.8;1.6;;;;;;;4.88;96.76074;924.9108;;;;
2023/11/06 00:13:03;;;;;;;3.2;1.7;;;;;;;4.97;96.91895;925.0796;;;;
2023/11/06 00:15:27;;;;;;;1.8;1.3;;;;;;;5.18;95.3418;925.1463;;;;
2023/11/06 00:17:55;;;;;;;2.2;1.4;;;;;;;5.11;95.9668;925.2609;;;;
2023/11/06 00:20:21;;;;;;;2.4;1.4;;;;;;;5.04;96.24316;925.1925;;;;
2023/11/06 00:23:03;;;;;;;3.8;1.9;;;;;;;4.93;96.30957;925.2133;;;;
2023/11/06 00:25:27;;;;;;;3;1.8;;;;;;;5.02;96.96094;925.2744;;;;
2023/11/06 00:28:01;;;;;;;3.2;1.6;;;;;;;4.88;96.99805;925.2239;;;;
2023/11/06 00:30:34;;;;;;;2;1.4;;;;;;;4.88;96.60352;925.3359;;;;
2023/11/06 00:33:15;;;;;;;2.9;1.6;;;;;;;4.98;95.93848;925.3984;;;;
2023/11/06 00:35:40;;;;;;;1.6;1.2;;;;;;;5.1;95.24316;925.3027;;;;
2023/11/06 00:38:17;;;;;;;2;1.2;;;;;;;5.12;94.75293;925.407;;;;
2023/11/06 00:40:46;;;;;;;1.3;1.1;;;;;;;5.31;93.81348;925.4207;;;;
2023/11/06 00:43:16;;;;;;;1.4;0.9;;;;;;;5.19;93.52637;925.514;;;;
2023/11/06 00:45:42;;;;;;;1.3;1.2;;;;;;;5;94.58008;925.3694;;;;
2023/11/06 00:48:13;;;;;;;1.7;1.2;;;;;;;4.87;95.58691;925.2885;;;;
2023/11/06 00:50:42;;;;;;;1.3;1.2;;;;;;;5.04;94.41895;925.456;;;;
2023/11/06 00:53:07;;;;;;;1.1;0.9;;;;;;;5.06;94.24121;925.5058;;;;
2023/11/06 00:55:32;;;;;;;1.3;1;;;;;;;4.84;95.56934;925.6186;;;;
2023/11/06 00:58:01;;;;;;;0.9;0.8;;;;;;;4.86;95.28125;925.6788;;;;
2023/11/06 01:00:30;;;;;;;1.2;0.9;;;;;;;4.86;95.24707;925.7;;;;
2023/11/06 01:02:55;;;;;;;1;0.9;;;;;;;5;95.23438;925.7709;;;;
2023/11/06 01:05:21;;;;;;;1.2;1;;;;;;;5.07;93.77148;925.7805;;;;
2023/11/06 01:07:47;;;;;;;1.2;1;;;;;;;4.96;94.09473;925.8887;;;;
2023/11/06 01:10:14;;;;;;;1.1;1;;;;;;;4.82;94.57422;925.8566;;;;
2023/11/06 01:12:42;;;;;;;2.4;0.9;;;;;;;4.84;94.76758;925.8929;;;;
2023/11/06 01:15:07;;;;;;;0.9;0.9;;;;;;;5.05;93.14746;925.9128;;;;
2023/11/06 01:17:34;;;;;;;0.9;0.8;;;;;;;4.79;94.34082;925.8748;;;;
2023/11/06 01:19:59;;;;;;;1.6;0.8;;;;;;;4.77;94.82129;925.7926;;;;
2023/11/06 01:22:24;;;;;;;0.7;0.7;;;;;;;4.91;94.15234;926.0372;;;;
2023/11/06 01:24:53;;;;;;;0.9;0.5;;;;;;;4.92;93.73828;925.9971;;;;
2023/11/06 01:27:19;;;;;;;0.4;0.4;;;;;;;4.62;95.2041;926.0016;;;;
2023/11/06 01:29:47;;;;;;;0.6;0.6;;;;;;;4.61;94.96582;926.1014;;;;
2023/11/06 01:32:13;;;;;;;0.7;0.5;;;;;;;4.72;94.23438;926.202;;;;
2023/11/06 01:34:39;;;;;;;0.9;0.6;;;;;;;4.56;95.0459;926.2252;;;;
2023/11/06 01:37:05;;;;;;;1.5;0.9;;;;;;;4.52;95.06934;926.1877;;;;
2023/11/06 01:39:30;;;;;;;0.6;0.6;;;;;;;4.78;93.91113;926.1318;;;;
2023/11/06 01:41:57;;;;;;;0.6;0.6;;;;;;;4.75;93.62305;926.1913;;;;
2023/11/06 01:44:23;;;;;;;0.5;0.5;;;;;;;4.41;94.85547;926.1217;;;;
2023/11/06 01:46:47;;;;;;;0.6;0.6;;;;;;;4.52;94.6748;926.1144;;;;
2023/11/06 01:49:15;;;;;;;0.7;0.7;;;;;;;4.52;94.83301;926.2349;;;;
2023/11/06 01:51:43;;;;;;;2.8;0.8;;;;;;;4.4;95.57031;926.1881;;;;
2023/11/06 01:54:10;;;;;;;1.2;0.8;;;;;;;4.65;94.17383;926.2115;;;;
2023/11/06 01:56:37;;;;;;;0.7;0.7;;;;;;;4.52;94.52832;926.1719;;;;
2023/11/06 01:59:04;;;;;;;0.8;0.7;;;;;;;4.33;95.87988;926.2076;;;;
2023/11/06 02:01:28;;;;;;;0.5;0.5;;;;;;;4.5;95.68457;926.1858;;;;
2023/11/06 02:03:52;;;;;;;1;0.7;;;;;;;4.83;93.81934;926.1973;;;;
2023/11/06 02:06:19;;;;;;;0.9;0.6;;;;;;;4.73;93.39355;926.1809;;;;
2023/11/06 02:08:44;;;;;;;0.5;0.5;;;;;;;4.6;93.15039;926.3155;;;;
2023/11/06 02:11:12;;;;;;;0.8;0.6;;;;;;;4.44;94.11914;926.353;;;;
2023/11/06 02:13:37;;;;;;;1.7;0.8;;;;;;;4.56;93.64746;926.3803;;;;
2023/11/06 02:16:03;;;;;;;1.1;0.8;;;;;;;4.38;93.78809;926.3896;;;;
2023/11/06 02:18:28;;;;;;;0.8;0.8;;;;;;;4.28;94.87012;926.5019;;;;
2023/11/06 02:20:57;;;;;;;0.9;0.8;;;;;;;4.3;95.06543;926.4579;;;;
2023/11/06 02:23:24;;;;;;;1.4;0.9;;;;;;;4.53;94.49707;926.5432;;;;
2023/11/06 02:25:48;;;;;;;1.2;0.6;;;;;;;4.5;93.27539;926.6099;;;;
2023/11/06 02:28:12;;;;;;;1.7;0.8;;;;;;;4.43;93.86719;926.5143;;;;
2023/11/06 02:30:38;;;;;;;0.8;0.8;;;;;;;4.58;93.51563;926.5502;;;;
2023/11/06 02:33:03;;;;;;;1.3;0.8;;;;;;;4.38;93.41797;926.5567;;;;
2023/11/06 02:35:31;;;;;;;2.4;1.2;;;;;;;4.65;91.66211;926.7169;;;;
2023/11/06 02:37:57;;;;;;;2.2;1.5;;;;;;;4.53;92.10059;926.7481;;;;
2023/11/06 02:40:23;;;;;;;5.6;3.3;;;;;;;4.38;92.49512;926.7971;;;;
2023/11/06 02:42:48;;;;;;;1.6;1.1;;;;;;;4.4;92.20508;926.7216;;;;
2023/11/06 02:45:16;;;;;;;2;1.4;;;;;;;4.27;93.26855;926.8452;;;;
2023/11/06 02:47:41;;;;;;;2.9;1;;;;;;;4.38;92.91016;926.7986;;;;
2023/11/06 02:50:16;;;;;;;0.7;0.6;;;;;;;4.06;94.31445;926.8111;;;;
2023/11/06 02:52:44;;;;;;;1;0.8;;;;;;;4.24;93.25195;926.9661;;;;
2023/11/06 02:55:08;;;;;;;0.7;0.7;;;;;;;4.41;92.46777;927.0097;;;;
2023/11/06 02:57:37;;;;;;;2;1.4;;;;;;;4.18;92.95801;927.057;;;;
2023/11/06 03:00:16;;;;;;;1;0.9;;;;;;;4.21;93.36914;927.0555;;;;
2023/11/06 03:02:43;;;;;;;0.8;0.8;;;;;;;4.31;93.00879;927.194;;;;
2023/11/06 03:05:09;;;;;;;1;1;;;;;;;4.13;93.47559;927.1382;;;;
2023/11/06 03:07:35;;;;;;;0.7;0.7;;;;;;;4.35;91.94727;927.2009;;;;
2023/11/06 03:10:04;;;;;;;1.4;0.7;;;;;;;4.17;92.70703;927.2318;;;;
2023/11/06 03:12:28;;;;;;;1;0.9;;;;;;;3.95;93.9209;927.3203;;;;
2023/11/06 03:14:56;;;;;;;0.6;0.6;;;;;;;3.76;94.43945;927.3703;;;;
2023/11/06 03:17:21;;;;;;;0.8;0.7;;;;;;;4.22;92.39258;927.3478;;;;
2023/11/06 03:19:47;;;;;;;0.9;0.6;;;;;;;3.91;93.875;927.3423;;;;
2023/11/06 03:22:12;;;;;;;1.4;0.7;;;;;;;4.27;92.23535;927.3589;;;;
2023/11/06 03:24:41;;;;;;;0.5;0.5;;;;;;;4.09;92.20605;927.3582;;;;
2023/11/06 03:27:07;;;;;;;1.3;0.7;;;;;;;3.96;92.98828;927.3304;;;;
2023/11/06 03:29:34;;;;;;;0.6;0.6;;;;;;;3.83;93.43262;927.2749;;;;
2023/11/06 03:31:59;;;;;;;1;0.6;;;;;;;3.93;93.36426;927.4286;;;;
2023/11/06 03:34:25;;;;;;;1.1;0.8;;;;;;;3.65;94.49414;927.3141;;;;
2023/11/06 03:36:50;;;;;;;0.7;0.7;;;;;;;3.83;94.01465;927.3032;;;;
2023/11/06 03:39:14;;;;;;;1.6;0.8;;;;;;;3.92;93.61914;927.3669;;;;
2023/11/06 03:41:42;;;;;;;1.9;0.7;;;;;;;3.89;93.7832;927.4043;;;;
2023/11/06 03:44:06;;;;;;;1.6;0.9;;;;;;;3.73;94.00391;927.45;;;;
2023/11/06 03:46:35;;;;;;;3.6;1.3;;;;;;;3.73;94.51172;927.4304;;;;
2023/11/06 03:49:00;;;;;;;1.5;1;;;;;;;3.77;94.2168;927.3806;;;;
2023/11/06 03:51:26;;;;;;;0.9;0.8;;;;;;;3.74;94.92773;927.514;;;;
2023/11/06 03:53:52;;;;;;;1.2;1;;;;;;;3.61;94.95801;927.5425;;;;
2023/11/06 03:56:19;;;;;;;1.6;1.1;;;;;;;3.93;94.25;927.6561;;;;
2023/11/06 03:58:44;;;;;;;1.8;0.7;;;;;;;3.59;94.80566;927.4938;;;;
2023/11/06 04:02:31;;;;;;;0.5;0.5;;;;;;;3.53;95.49902;927.5266;;;;
2023/11/06 04:05:02;;;;;;;0.9;0.7;;;;;;;3.68;94.74707;927.6027;;;;
2023/11/06 04:07:27;;;;;;;1.5;0.8;;;;;;;3.7;94.35938;927.6362;;;;
2023/11/06 04:09:54;;;;;;;1.8;0.6;;;;;;;3.69;94.12891;927.6697;;;;
2023/11/06 04:12:20;;;;;;;1;0.5;;;;;;;3.65;94.72949;927.729;;;;
2023/11/06 04:14:43;;;;;;;1.3;0.7;;;;;;;3.75;94.54785;927.6912;;;;
2023/11/06 04:17:08;;;;;;;0.5;0.5;;;;;;;4.02;92.58594;927.8201;;;;
2023/11/06 04:19:38;;;;;;;1.1;0.6;;;;;;;3.85;92.80664;927.6933;;;;
2023/11/06 04:22:03;;;;;;;1.5;0.7;;;;;;;3.92;92.87695;927.7748;;;;
2023/11/06 04:24:27;;;;;;;0.8;0.5;;;;;;;3.64;93.36816;927.8445;;;;
2023/11/06 04:26:52;;;;;;;0.6;0.6;;;;;;;3.74;93.09766;927.7794;;;;
2023/11/06 04:29:22;;;;;;;1.6;0.6;;;;;;;3.72;92.85645;927.6931;;;;
2023/11/06 04:31:47;;;;;;;1;0.7;;;;;;;3.81;92.69629;927.6541;;;;
2023/11/06 04:34:19;;;;;;;1;0.8;;;;;;;3.94;91.99219;927.5877;;;;
2023/11/06 04:36:45;;;;;;;0.5;0.5;;;;;;;3.65;92.21289;927.6392;;;;
2023/11/06 04:39:11;;;;;;;0.7;0.7;;;;;;;3.68;93.02832;927.6909;;;;
2023/11/06 04:41:38;;;;;;;2.2;1;;;;;;;3.8;92.53809;927.7249;;;;
2023/11/06 04:44:03;;;;;;;1.7;1.4;;;;;;;3.71;92.69629;927.7503;;;;
2023/11/06 04:46:32;;;;;;;4.4;2.8;;;;;;;3.68;93.5332;927.7986;;;;
2023/11/06 04:48:57;;;;;;;3.7;2.9;;;;;;;3.58;92.91602;927.8179;;;;
2023/11/06 04:51:22;;;;;;;1;0.9;;;;;;;3.35;93.89844;927.8589;;;;
2023/11/06 04:53:47;;;;;;;1.7;1.3;;;;;;;3.5;94.07813;927.8401;;;;
2023/11/06 04:56:17;;;;;;;1.4;1.1;;;;;;;3.49;93.52539;927.7886;;;;
2023/11/06 04:58:42;;;;;;;2.3;1.3;;;;;;;3.62;92.57813;927.7899;;;;
2023/11/06 05:01:08;;;;;;;1.6;1;;;;;;;3.28;94.2207;927.782;;;;
2023/11/06 05:03:33;;;;;;;1.3;1.2;;;;;;;3.43;93.67969;927.8843;;;;
2023/11/06 05:06:00;;;;;;;2;1.9;;;;;;;3.61;93.14648;927.9077;;;;
2023/11/06 05:08:28;;;;;;;1.6;1.2;;;;;;;3.58;92.53418;927.9533;;;;
2023/11/06 05:10:50;;;;;;;2.2;1;;;;;;;3.44;93.16797;927.8853;;;;
2023/11/06 05:13:18;;;;;;;2.1;1.4;;;;;;;3.2;94.0791;927.8734;;;;
2023/11/06 05:15:42;;;;;;;1.9;1.5;;;;;;;3.44;92.57031;928.0198;;;;
2023/11/06 05:18:07;;;;;;;1.7;1.4;;;;;;;3.35;94.16699;927.9942;;;;
2023/11/06 05:20:39;;;;;;;1.6;1.2;;;;;;;3.45;93.6748;928.0861;;;;
2023/11/06 05:23:05;;;;;;;1.1;1;;;;;;;3.5;93.08984;928.1603;;;;
2023/11/06 05:25:30;;;;;;;1.5;1.3;;;;;;;3.31;93.74414;928.187;;;;
2023/11/06 05:27:55;;;;;;;2.4;1.5;;;;;;;3.54;92.97559;928.2571;;;;
2023/11/06 05:30:24;;;;;;;2.8;1.5;;;;;;;3.28;93.27734;928.2408;;;;
2023/11/06 05:32:49;;;;;;;2.7;1.8;;;;;;;3.21;94.20508;928.3273;;;;
2023/11/06 05:35:20;;;;;;;3.9;1.9;;;;;;;3.11;94.38477;928.3541;;;;
2023/11/06 05:37:50;;;;;;;5;2.1;;;;;;;3.16;95.09277;928.3764;;;;
2023/11/06 05:40:15;;;;;;;6;2.8;;;;;;;3.42;93.45508;928.4744;;;;
2023/11/06 05:42:44;;;;;;;2.6;2;;;;;;;3.2;94.22559;928.4565;;;;
2023/11/06 05:45:15;;;;;;;4.6;2;;;;;;;3.44;92.69336;928.4187;;;;
2023/11/06 05:47:39;;;;;;;2.8;1.8;;;;;;;3.52;92.18555;928.4959;;;;
2023/11/06 05:50:07;;;;;;;3.2;1.6;;;;;;;3.3;92.67578;928.5793;;;;
2023/11/06 05:52:32;;;;;;;2.2;1.3;;;;;;;3.38;92.04199;928.5887;;;;
2023/11/06 05:54:59;;;;;;;4.1;2.3;;;;;;;3.17;93.38867;928.5458;;;;
2023/11/06 05:57:24;;;;;;;9;4.8;;;;;;;3.44;92.40137;928.5863;;;;
2023/11/06 05:59:49;;;;;;;10.8;5.5;;;;;;;3.48;91.14258;928.6831;;;;
2023/11/06 06:02:14;;;;;;;8.7;4;;;;;;;3.01;93.03906;928.5612;;;;
2023/11/06 06:04:41;;;;;;;6.8;3.9;;;;;;;3.07;93.99316;928.6316;;;;
2023/11/06 06:07:07;;;;;;;8.2;3.1;;;;;;;3.06;93.62109;928.7234;;;;
2023/11/06 06:09:32;;;;;;;3.8;2.2;;;;;;;2.91;94.08301;928.7316;;;;
2023/11/06 06:12:00;;;;;;;4.8;2.7;;;;;;;2.9;94.69727;928.7551;;;;
2023/11/06 06:14:26;;;;;;;3.1;2.7;;;;;;;3.06;94.47363;928.7517;;;;
2023/11/06 06:16:53;;;;;;;2.4;2.1;;;;;;;3.03;94.15332;928.8219;;;;
2023/11/06 06:19:18;;;;;;;2.3;2.1;;;;;;;3.01;94.07129;928.8253;;;;
2023/11/06 06:21:46;;;;;;;1.3;1.2;;;;;;;2.86;94.62012;928.9592;;;;
2023/11/06 06:24:11;;;;;;;3.3;1.7;;;;;;;2.8;94.7207;928.9398;;;;
2023/11/06 06:26:42;;;;;;;1.4;1.3;;;;;;;2.65;95.97559;929.0265;;;;
2023/11/06 06:29:12;;;;;;;1.8;1.6;;;;;;;2.74;96.10742;929.0411;;;;
2023/11/06 06:31:37;;;;;;;1.4;1.1;;;;;;;2.75;96.54688;928.9981;;;;
2023/11/06 06:34:05;;;;;;;1.3;1;;;;;;;2.92;96.33691;929.0273;;;;
2023/11/06 06:36:38;;;;;;;1.2;1.1;;;;;;;3.25;94.4707;929.0156;;;;
2023/11/06 06:39:16;;;;;;;1.6;1.4;;;;;;;3.11;94.59766;929.0494;;;;
2023/11/06 06:41:49;;;;;;;4.1;1.7;;;;;;;3.5;92.57324;929.1337;;;;
2023/11/06 06:44:14;;;;;;;2.1;1.6;;;;;;;3.45;92.20215;929.1381;;;;
2023/11/06 06:46:40;;;;;;;2.3;2;;;;;;;3.45;92.6416;929.0602;;;;
2023/11/06 06:49:08;;;;;;;2.5;2.1;;;;;;;3.45;93.71973;929.1721;;;;
2023/11/06 06:51:32;;;;;;;2;1.8;;;;;;;3.45;94.1582;929.1783;;;;
2023/11/06 06:53:59;;;;;;;2.7;2;;;;;;;3.58;94.52246;929.2321;;;;
2023/11/06 06:56:24;;;;;;;3.5;2.5;;;;;;;4.16;91.81641;929.2506;;;;
2023/11/06 06:58:51;;;;;;;5.1;3.4;;;;;;;4.34;89.95313;929.3244;;;;
2023/11/06 07:01:18;;;;;;;5.3;2.9;;;;;;;4.34;89.27832;929.2502;;;;
2023/11/06 07:03:48;;;;;;;4.3;2.9;;;;;;;4.43;90.04004;929.3183;;;;
2023/11/06 07:06:20;;;;;;;4.6;2.9;;;;;;;4.53;89.21875;929.3698;;;;
2023/11/06 07:08:48;;;;;;;4.9;3.1;;;;;;;4.84;87.95117;929.3289;;;;
2023/11/06 07:11:13;;;;;;;4.6;3.1;;;;;;;5.1;86.70996;929.368;;;;
2023/11/06 07:13:42;;;;;;;3.9;2.7;;;;;;;5.24;85.84668;929.4698;;;;
2023/11/06 07:16:07;;;;;;;4.7;3.1;;;;;;;5.28;86.06836;929.5193;;;;
2023/11/06 07:18:35;;;;;;;4.9;3.8;;;;;;;5.49;85.26367;929.4942;;;;
2023/11/06 07:21:01;;;;;;;4;3;;;;;;;5.69;84.52637;929.4309;;;;
2023/11/06 07:23:27;;;;;;;2.4;1.9;;;;;;;5.98;85.50977;929.4763;;;;
2023/11/06 07:25:52;;;;;;;3.6;2.5;;;;;;;6.36;82.13574;929.5025;;;;
2023/11/06 07:28:17;;;;;;;2;1.7;;;;;;;6.47;81.56934;929.4384;;;;
2023/11/06 07:30:45;;;;;;;2.1;1.7;;;;;;;6.74;80.56836;929.4246;;;;
2023/11/06 07:33:11;;;;;;;2.2;1.7;;;;;;;7;78.88379;929.5522;;;;
2023/11/06 07:35:38;;;;;;;3;2.1;;;;;;;6.86;79.24512;929.6342;;;;
2023/11/06 07:38:06;;;;;;;2.5;1.8;;;;;;;6.84;78.86719;929.6521;;;;
2023/11/06 07:40:30;;;;;;;3;1.8;;;;;;;6.93;78.18164;929.6411;;;;
2023/11/06 07:43:02;;;;;;;2.5;2.1;;;;;;;7.1;77.90527;929.6626;;;;
2023/11/06 07:45:50;;;;;;;3.7;2.3;;;;;;;7.39;77.93457;929.6763;;;;
2023/11/06 07:50:34;;;;;;;3.1;1.8;;;;;;;7.52;76.66699;929.7218;;;;
2023/11/06 07:52:58;;;;;;;1.7;1.2;;;;;;;7.62;75.67578;929.7394;;;;
2023/11/06 07:55:24;;;;;;;2.6;1.4;;;;;;;7.74;75.76563;929.7235;;;;
2023/11/06 07:57:51;;;;;;;1.5;1.2;;;;;;;7.9;74.56836;929.6573;;;;
2023/11/06 08:00:18;;;;;;;1.4;0.9;;;;;;;7.97;74.0127;929.6981;;;;
2023/11/06 08:02:43;;;;;;;1.6;0.9;;;;;;;7.92;74.27539;929.7264;;;;
2023/11/06 08:05:13;;;;;;;0.7;0.7;;;;;;;7.68;74.08691;929.762;;;;
2023/11/06 08:07:43;;;;;;;1.5;1.2;;;;;;;7.82;75.84863;929.7567;;;;
2023/11/06 08:10:12;;;;;;;1.3;1.2;;;;;;;8.09;74.46387;929.8219;;;;
2023/11/06 08:12:37;;;;;;;2.2;1.4;;;;;;;8.02;74.42871;929.7621;;;;
2023/11/06 08:15:04;;;;;;;2.5;1.4;;;;;;;8.28;70.69141;929.8349;;;;
2023/11/06 08:17:29;;;;;;;2.6;1.5;;;;;;;7.9;72.38965;929.7874;;;;
2023/11/06 08:20:00;;;;;;;3.5;2;;;;;;;7.87;73.55469;929.8656;;;;
2023/11/06 08:22:32;;;;;;;5.7;3;;;;;;;7.64;74.43262;929.9067;;;;
2023/11/06 08:25:00;;;;;;;60.6;21.4;;;;;;;7.59;75.02637;930.009;;;;
2023/11/06 08:27:25;;;;;;;3.2;1.9;;;;;;;7.68;75.6748;930.0694;;;;
2023/11/06 08:29:52;;;;;;;2;1.5;;;;;;;7.88;75.47363;930.0289;;;;
2023/11/06 08:32:18;;;;;;;2;1.2;;;;;;;8.1;73.77441;930.0899;;;;
2023/11/06 08:34:47;;;;;;;2.6;1.6;;;;;;;7.97;74.39844;930.035;;;;
2023/11/06 08:37:12;;;;;;;4.8;2.4;;;;;;;8.02;74.40723;930.0911;;;;
2023/11/06 08:39:39;;;;;;;2.8;1.7;;;;;;;7.84;74.5127;930.0961;;;;
2023/11/06 08:42:05;;;;;;;3.5;1.7;;;;;;;8.01;74.12109;930.1406;;;;
2023/11/06 08:44:34;;;;;;;2;1.5;;;;;;;7.8;74.66504;930.1764;;;;
2023/11/06 08:46:59;;;;;;;2.4;1.5;;;;;;;7.92;74.49219;930.0815;;;;
2023/11/06 08:49:28;;;;;;;2.6;1.7;;;;;;;8.05;75.33203;930.1166;;;;
2023/11/06 08:51:52;;;;;;;1.7;1.1;;;;;;;8.19;73.25488;930.0737;;;;
2023/11/06 08:54:20;;;;;;;1.4;1;;;;;;;8.24;73.63867;929.9958;;;;
2023/11/06 08:56:49;;;;;;;1.1;1;;;;;;;8.3;73.81836;930.0047;;;;
2023/11/06 08:59:14;;;;;;;1.6;0.7;;;;;;;8.48;72.9082;930.0005;;;;
2023/11/06 09:01:45;;;;;;;2.1;0.9;;;;;;;8.52;73.5957;930.03;;;;
2023/11/06 09:04:13;;;;;;;0.8;0.6;;;;;;;8.6;71.50684;930.02;;;;
2023/11/06 09:06:40;;;;;;;1.5;0.7;;;;;;;8.69;71.93066;930.0467;;;;
2023/11/06 09:09:08;;;;;;;0.5;0.5;;;;;;;8.89;68.0293;930.0673;;;;
2023/11/06 09:11:33;;;;;;;0.3;0.3;;;;;;;8.81;64.27441;930.1005;;;;
2023/11/06 09:13:58;;;;;;;0.5;0.5;;;;;;;8.91;66.47363;930.0651;;;;
2023/11/06 09:16:30;;;;;;;0.7;0.4;;;;;;;8.88;66.73047;930.1245;;;;
2023/11/06 09:19:01;;;;;;;1.1;0.4;;;;;;;9.01;66.47754;930.1855;;;;
2023/11/06 09:21:28;;;;;;;1.2;0.4;;;;;;;9.37;63.40039;930.1417;;;;
2023/11/06 09:23:54;;;;;;;0.4;0.4;;;;;;;9.29;64.12988;930.2123;;;;
2023/11/06 09:26:24;;;;;;;1.3;0.8;;;;;;;9.42;62.61133;930.1443;;;;
2023/11/06 09:28:49;;;;;;;1.1;0.7;;;;;;;9.53;62.78809;930.1889;;;;
2023/11/06 09:31:19;;;;;;;0.8;0.6;;;;;;;9.58;63.74121;930.1953;;;;
2023/11/06 09:33:42;;;;;;;1.2;0.8;;;;;;;9.54;62.85742;930.1993;;;;
2023/11/06 09:36:10;;;;;;;1.3;0.9;;;;;;;9.59;61.57813;930.2383;;;;
2023/11/06 09:38:41;;;;;;;0.5;0.5;;;;;;;9.6;61.12207;930.2422;;;;
2023/11/06 09:41:07;;;;;;;0.8;0.7;;;;;;;9.66;60.49414;930.2473;;;;
2023/11/06 09:43:32;;;;;;;0.8;0.3;;;;;;;9.63;61.0918;930.2234;;;;
2023/11/06 09:45:57;;;;;;;1.2;0.6;;;;;;;9.78;63.0293;930.3314;;;;
2023/11/06 09:48:25;;;;;;;2.8;0.9;;;;;;;10;63.47168;930.2966;;;;
2023/11/06 09:50:50;;;;;;;2;0.9;;;;;;;10.11;62.92773;930.2911;;;;
2023/11/06 09:53:23;;;;;;;0.8;0.6;;;;;;;10.27;62.99902;930.3184;;;;
2023/11/06 09:55:46;;;;;;;0.7;0.5;;;;;;;10.37;61.24316;930.2935;;;;
2023/11/06 09:58:12;;;;;;;0.4;0.4;;;;;;;10.37;61.72266;930.3332;;;;
2023/11/06 10:00:42;;;;;;;0.5;0.3;;;;;;;10.47;62.09082;930.2679;;;;
2023/11/06 10:03:17;;;;;;;1;0.6;;;;;;;10.83;63.93652;930.2281;;;;
2023/11/06 10:05:47;;;;;;;0.5;0.5;;;;;;;10.91;63.30859;930.1528;;;;
2023/11/06 10:08:12;;;;;;;0.4;0.4;;;;;;;11.37;62.12891;930.0709;;;;
2023/11/06 10:10:38;;;;;;;0.6;0.6;;;;;;;11.39;60.89453;930.0947;;;;
2023/11/06 10:13:03;;;;;;;0.8;0.6;;;;;;;11.46;62.82813;930.1295;;;;
2023/11/06 10:15:27;;;;;;;0.6;0.5;;;;;;;11.37;61.97949;930.098;;;;
2023/11/06 10:17:53;;;;;;;1.1;0.5;;;;;;;11.26;62.69531;930.0948;;;;
2023/11/06 10:20:19;;;;;;;0.7;0.7;;;;;;;11.27;62.27539;930.0413;;;;
2023/11/06 10:22:45;;;;;;;0.7;0.5;;;;;;;11.32;61.08008;930.0402;;;;
2023/11/06 10:25:14;;;;;;;0.4;0.3;;;;;;;11.12;61.18945;930.0053;;;;
2023/11/06 10:27:40;;;;;;;0.4;0.4;;;;;;;11.38;58.89258;929.9154;;;;
2023/11/06 10:30:05;;;;;;;0.3;0.3;;;;;;;11.44;57.55176;929.8834;;;;
2023/11/06 10:32:33;;;;;;;0.5;0.4;;;;;;;11.54;54.66895;929.8858;;;;
2023/11/06 10:34:57;;;;;;;0.5;0.4;;;;;;;11.18;56.9209;929.824;;;;
2023/11/06 10:37:27;;;;;;;0.3;0.3;;;;;;;11.31;57.30469;929.8131;;;;
2023/11/06 10:39:47;;;;;;;0.6;0.4;;;;;;;11.37;55.33398;929.7776;;;;
2023/11/06 10:42:17;;;;;;;0.2;0.2;;;;;;;11.53;51.74902;929.787;;;;
2023/11/06 10:44:42;;;;;;;2.2;0.5;;;;;;;11.36;56.29395;929.8016;;;;
2023/11/06 10:47:08;;;;;;;1;0.4;;;;;;;11.62;55.28516;929.8074;;;;
2023/11/06 10:49:35;;;;;;;0.5;0.5;;;;;;;11.78;55.61426;929.7381;;;;
2023/11/06 10:52:01;;;;;;;0.4;0.3;;;;;;;11.94;55.9209;929.7572;;;;
2023/11/06 10:54:26;;;;;;;0.4;0.4;;;;;;;12.19;53.45508;929.6814;;;;
2023/11/06 10:56:56;;;;;;;0.4;0.4;;;;;;;12.16;51.99609;929.6953;;;;
2023/11/06 10:59:18;;;;;;;0.3;0.3;;;;;;;12.27;53.70508;929.744;;;;
2023/11/06 11:01:48;;;;;;;0.5;0.4;;;;;;;12.22;52.48535;929.6456;;;;
2023/11/06 11:04:17;;;;;;;0.4;0.4;;;;;;;12.34;52.24707;929.6738;;;;
2023/11/06 11:06:43;;;;;;;0.7;0.5;;;;;;;12.16;53.29102;929.6147;;;;
2023/11/06 11:09:11;;;;;;;0.5;0.5;;;;;;;12.28;53.68359;929.6672;;;;
2023/11/06 11:11:35;;;;;;;0.9;0.4;;;;;;;12.47;52.69824;929.5536;;;;
2023/11/06 11:14:06;;;;;;;0.3;0.3;;;;;;;12.73;52.4541;929.6472;;;;
2023/11/06 11:16:31;;;;;;;0.6;0.4;;;;;;;12.88;53.12598;929.5745;;;;
2023/11/06 11:18:57;;;;;;;0.2;0.2;;;;;;;13.12;52.2041;929.6577;;;;
2023/11/06 11:21:22;;;;;;;0.6;0.4;;;;;;;13.27;52.14063;929.6578;;;;
2023/11/06 11:23:52;;;;;;;0.3;0.3;;;;;;;13.45;55.39258;929.6688;;;;
2023/11/06 11:26:13;;;;;;;0.4;0.3;;;;;;;13.75;51.93359;929.6859;;;;
2023/11/06 11:28:38;;;;;;;0.8;0.3;;;;;;;14.19;51.15723;929.6981;;;;
2023/11/06 11:31:04;;;;;;;1;0.3;;;;;;;14.67;49.96973;929.6876;;;;
2023/11/06 11:33:33;;;;;;;1;0.3;;;;;;;15.79;48.51367;929.7327;;;;
2023/11/06 11:36:04;;;;;;;1.3;0.5;;;;;;;17.32;46.3291;929.7417;;;;
2023/11/06 11:38:30;;;;;;;0.9;0.1;;;;;;;19.37;40.67285;929.7377;;;;
2023/11/06 11:41:00;;;;;;;1.1;0.4;;;;;;;20.14;39.26172;929.7321;;;;
2023/11/06 11:43:25;;;;;;;1;0.4;;;;;;;19.97;38.72168;929.7734;;;;
2023/11/06 11:45:54;;;;;;;0.2;0.2;;;;;;;21.09;35.90723;929.7678;;;;
2023/11/06 11:48:19;;;;;;;0.2;0.2;;;;;;;22.76;33.60059;929.775;;;;
2023/11/06 11:50:44;;;;;;;0.3;0.2;;;;;;;24.13;31.72559;929.761;;;;
2023/11/06 11:53:12;;;;;;;0.4;0.4;;;;;;;23.6;31.94727;929.7241;;;;
2023/11/06 11:55:37;;;;;;;0.8;0.3;;;;;;;24.58;29.35352;929.6909;;;;
2023/11/06 11:58:06;;;;;;;1.1;0.4;;;;;;;26.57;27.58887;929.7302;;;;
2023/11/06 12:00:31;;;;;;;0.3;0.2;;;;;;;27.43;25.83887;929.7115;;;;
2023/11/06 12:02:55;;;;;;;0.3;0.2;;;;;;;29.08;24.12402;929.6831;;;;
2023/11/06 12:05:24;;;;;;;0.9;0.4;;;;;;;27.82;25.94434;929.6636;;;;
2023/11/06 12:07:49;;;;;;;0.3;0.3;;;;;;;28.96;24.7959;929.5745;;;;
2023/11/06 12:10:21;;;;;;;0.3;0.3;;;;;;;27.15;26.75879;929.5726;;;;
2023/11/06 12:12:47;;;;;;;0.7;0.3;;;;;;;27.4;26.11035;929.6702;;;;
2023/11/06 12:15:13;;;;;;;0.7;0.2;;;;;;;27.64;25.94629;929.5928;;;;
2023/11/06 12:17:42;;;;;;;0.8;0.2;;;;;;;27.5;26.19922;929.673;;;;
2023/11/06 12:20:09;;;;;;;0.5;0.2;;;;;;;29.13;23.79297;929.6528;;;;
2023/11/06 12:22:36;;;;;;;1;0.2;;;;;;;30.78;22.84082;929.7139;;;;
2023/11/06 12:25:01;;;;;;;0.3;0.3;;;;;;;30.05;22.89844;929.6475;;;;
2023/11/06 12:27:26;;;;;;;0.2;0.2;;;;;;;29.95;23.49023;929.6392;;;;
2023/11/06 12:29:52;;;;;;;0.6;0.4;;;;;;;29.49;23.52539;929.6242;;;;
2023/11/06 12:32:21;;;;;;;0.4;0.4;;;;;;;30.46;23.02734;929.6033;;;;
2023/11/06 12:34:46;;;;;;;0.4;0.3;;;;;;;31.61;21.31348;929.541;;;;
2023/11/06 12:37:13;;;;;;;0.6;0.4;;;;;;;29.42;24.41602;929.5198;;;;
2023/11/06 12:39:41;;;;;;;0.4;0.3;;;;;;;29.5;23.41992;929.5623;;;;
2023/11/06 12:42:06;;;;;;;0.3;0.2;;;;;;;29.96;22.89453;929.5422;;;;
2023/11/06 12:44:31;;;;;;;0.4;0.4;;;;;;;30.79;22.18359;929.5339;;;;
2023/11/06 12:46:57;;;;;;;1.1;0.5;;;;;;;28.48;24.76953;929.454;;;;
2023/11/06 12:49:23;;;;;;;0.5;0.3;;;;;;;27.69;25.86523;929.463;;;;
2023/11/06 12:51:54;;;;;;;0.3;0.3;;;;;;;26.53;27.7168;929.4705;;;;
2023/11/06 12:54:17;;;;;;;0.5;0.3;;;;;;;27.56;26.60645;929.4874;;;;
2023/11/06 12:56:40;;;;;;;0.3;0.3;;;;;;;28.05;25.43457;929.4403;;;;
2023/11/06 12:59:06;;;;;;;0.5;0.4;;;;;;;27.08;26.94531;929.4899;;;;
2023/11/06 13:01:33;;;;;;;0.6;0.4;;;;;;;26.43;27.20117;929.4626;;;;
2023/11/06 13:04:06;;;;;;;0.3;0.2;;;;;;;25.99;27.69531;929.4383;;;;
2023/11/06 13:06:28;;;;;;;0.6;0.3;;;;;;;24.66;29.41699;929.4106;;;;
2023/11/06 13:08:55;;;;;;;0.5;0.3;;;;;;;22.98;31.70215;929.394;;;;
2023/11/06 13:11:20;;;;;;;0.8;0.4;;;;;;;22.31;33.56641;929.3834;;;;
2023/11/06 13:13:47;;;;;;;1.3;0.3;;;;;;;20.19;37.49219;929.4542;;;;
2023/11/06 13:16:12;;;;;;;0.3;0.3;;;;;;;19.56;38.02051;929.4758;;;;
2023/11/06 13:18:44;;;;;;;0.6;0.4;;;;;;;18.98;39.30957;929.3684;;;;
2023/11/06 13:21:17;;;;;;;0.4;0.3;;;;;;;18.77;40.07031;929.4403;;;;
2023/11/06 13:23:31;;;;;;;0.4;0.3;;;;;;;18.14;42.05859;929.432;;;;
2023/11/06 13:25:56;;;;;;;0.4;0.4;;;;;;;18.34;42.00684;929.4088;;;;
2023/11/06 13:28:21;;;;;;;0.4;0.4;;;;;;;18.28;41.60645;929.452;;;;
2023/11/06 13:30:46;;;;;;;0.4;0.2;;;;;;;18.31;41.2959;929.504;;;;
2023/11/06 13:33:12;;;;;;;0.3;0.3;;;;;;;18.5;41.73242;929.4913;;;;
2023/11/06 13:35:44;;;;;;;0.5;0.3;;;;;;;20.77;37.90332;929.5342;;;;
2023/11/06 13:38:12;;;;;;;1;0.5;;;;;;;21.13;36.6709;929.5497;;;;
2023/11/06 13:40:42;;;;;;;0.3;0.3;;;;;;;21.19;35.82129;929.4822;;;;
2023/11/06 13:43:03;;;;;;;0.4;0.4;;;;;;;22.53;34.00488;929.4522;;;;
2023/11/06 13:45:31;;;;;;;1;0.3;;;;;;;23.4;32.86035;929.4666;;;;
2023/11/06 13:47:57;;;;;;;0.8;0.4;;;;;;;23.66;32.5752;929.5259;;;;
2023/11/06 13:50:30;;;;;;;0.4;0.2;;;;;;;25.58;29.40625;929.4922;;;;
2023/11/06 13:52:50;;;;;;;0.5;0.4;;;;;;;26.01;28.68945;929.4367;;;;
2023/11/06 13:55:30;;;;;;;1.8;0.4;;;;;;;25.14;29.68457;929.385;;;;
2023/11/06 13:57:46;;;;;;;0.4;0.4;;;;;;;24.65;31.19629;929.4031;;;;
2023/11/06 14:00:31;;;;;;;1.2;0.4;;;;;;;25.22;29.85547;929.4567;;;;
2023/11/06 14:02:42;;;;;;;0.4;0.3;;;;;;;24.9;29.97559;929.4658;;;;
2023/11/06 14:05:08;;;;;;;0.8;0.4;;;;;;;24.74;30.88477;929.5282;;;;
2023/11/06 14:07:38;;;;;;;0.7;0.5;;;;;;;26.16;28.86523;929.4855;;;;
2023/11/06 14:10:24;;;;;;;0.4;0.3;;;;;;;26.51;28.23633;929.4758;;;;
2023/11/06 14:12:34;;;;;;;0.3;0.2;;;;;;;26.04;29.03516;929.5055;;;;
2023/11/06 14:15:00;;;;;;;0.3;0.3;;;;;;;27.15;27.2334;929.5059;;;;
2023/11/06 14:17:27;;;;;;;0.8;0.4;;;;;;;27.19;27.05859;929.5381;;;;
2023/11/06 14:19:54;;;;;;;0.4;0.3;;;;;;;26.63;27.61621;929.5441;;;;
2023/11/06 14:22:19;;;;;;;0.4;0.4;;;;;;;24.57;30.44922;929.5424;;;;
2023/11/06 14:24:46;;;;;;;0.4;0.4;;;;;;;22.79;32.95703;929.5356;;;;
2023/11/06 14:27:10;;;;;;;0.4;0.4;;;;;;;21.12;36.14355;929.5858;;;;
2023/11/06 14:29:38;;;;;;;0.8;0.4;;;;;;;20.92;36.67676;929.6228;;;;
2023/11/06 14:32:03;;;;;;;0.3;0.3;;;;;;;21.25;35.82715;929.6827;;;;
2023/11/06 14:34:30;;;;;;;0.4;0.3;;;;;;;21.8;35.25;929.6528;;;;
2023/11/06 14:36:54;;;;;;;0.6;0.4;;;;;;;23.12;33.2627;929.5333;;;;